Time;durP1;ratioP1;P1;durP2;ratioP2;P2;SDS_P1;SDS_P2;PMS_P1;PMS_P2;Temp;Humidity;BMP_temperature;BMP_pressure;BME280_temperature;BME280_humidity;BME280_pressure;Samples;Min_cycle;Max_cycle;Signal;HPM_P1;HPM_P2
2021/09/04 00:00:29;;;;;;;9.90;5.63;;;17.40;99.90;;;;;;5073559;28;20036;-76
2021/09/04 00:02:54;;;;;;;9.48;5.53;;;17.40;99.90;;;;;;5088962;28;20106;-77
2021/09/04 00:05:20;;;;;;;11.18;6.20;;;17.30;99.90;;;;;;5073470;28;20035;-77
2021/09/04 00:07:46;;;;;;;10.35;6.00;;;17.30;99.90;;;;;;5073346;28;20029;-77
2021/09/04 00:10:13;;;;;;;11.82;6.10;;;17.30;99.90;;;;;;5072960;28;20040;-76
2021/09/04 00:12:39;;;;;;;13.30;6.55;;;17.30;99.90;;;;;;5088881;28;20133;-77
2021/09/04 00:15:06;;;;;;;12.90;6.53;;;17.20;99.90;;;;;;5072486;28;20131;-77
2021/09/04 00:17:32;;;;;;;12.63;6.53;;;17.20;99.90;;;;;;5072773;28;20569;-77
2021/09/04 00:19:58;;;;;;;11.73;6.40;;;17.20;99.90;;;;;;5072760;28;20404;-76
2021/09/04 00:22:24;;;;;;;10.57;6.70;;;17.10;99.90;;;;;;5073140;28;20036;-76
2021/09/04 00:24:52;;;;;;;9.05;6.28;;;17.00;99.90;;;;;;5072577;28;20056;-77
2021/09/04 00:27:18;;;;;;;12.43;7.15;;;17.00;99.90;;;;;;5072632;28;20037;-76
2021/09/04 00:29:44;;;;;;;13.70;7.85;;;17.00;99.90;;;;;;5072983;28;20497;-77
2021/09/04 00:32:10;;;;;;;10.45;6.88;;;16.90;99.90;;;;;;5072475;28;20094;-76
2021/09/04 00:34:36;;;;;;;13.25;7.60;;;16.80;99.90;;;;;;5072603;28;20548;-76
2021/09/04 00:37:03;;;;;;;13.38;7.10;;;16.80;99.90;;;;;;5088187;28;20029;-76
2021/09/04 00:39:28;;;;;;;9.73;6.47;;;16.80;99.90;;;;;;5072553;28;20129;-76
2021/09/04 00:41:54;;;;;;;12.27;7.75;;;16.70;99.90;;;;;;5088373;28;20501;-76
2021/09/04 00:44:22;;;;;;;13.45;6.88;;;16.50;99.90;;;;;;5088089;28;20477;-77
2021/09/04 00:46:48;;;;;;;10.13;6.97;;;16.50;99.90;;;;;;5088304;28;20040;-77
2021/09/04 00:49:15;;;;;;;11.57;6.82;;;16.50;99.90;;;;;;5072596;28;20554;-77
2021/09/04 00:51:42;;;;;;;11.98;7.05;;;16.50;99.90;;;;;;5088370;28;20082;-76
2021/09/04 00:54:08;;;;;;;12.35;7.65;;;16.60;99.90;;;;;;5087828;28;20043;-76
2021/09/04 00:56:37;;;;;;;16.30;7.97;;;16.70;99.90;;;;;;5072644;28;20032;-77
2021/09/04 00:59:08;;;;;;;13.40;6.65;;;16.50;99.90;;;;;;5087756;28;20123;-77
2021/09/04 01:01:35;;;;;;;10.65;7.72;;;16.50;99.90;;;;;;5087937;28;20434;-76
2021/09/04 01:04:01;;;;;;;13.77;7.15;;;16.50;99.90;;;;;;5072062;28;20033;-77
2021/09/04 01:06:30;;;;;;;13.25;8.13;;;16.60;99.90;;;;;;5072583;28;20112;-77
2021/09/04 01:08:56;;;;;;;14.02;7.28;;;16.60;99.90;;;;;;5087882;28;20598;-77
2021/09/04 01:11:23;;;;;;;14.88;7.70;;;16.60;99.90;;;;;;5088167;28;20029;-76
2021/09/04 01:13:49;;;;;;;12.85;7.05;;;16.60;99.90;;;;;;5087784;28;20029;-77
2021/09/04 01:16:15;;;;;;;14.10;7.45;;;16.60;99.90;;;;;;5071847;28;20101;-77
2021/09/04 01:18:40;;;;;;;15.00;6.65;;;16.60;99.90;;;;;;5072027;28;20423;-77
2021/09/04 01:21:08;;;;;;;11.63;7.10;;;16.60;99.90;;;;;;5070645;28;20539;-76
2021/09/04 01:23:34;;;;;;;12.88;7.88;;;16.60;99.90;;;;;;5087557;28;20382;-76
2021/09/04 01:26:08;;;;;;;11.65;7.07;;;16.60;99.90;;;;;;5072231;28;20040;-77
2021/09/04 01:28:35;;;;;;;12.38;8.30;;;16.50;99.90;;;;;;5087674;28;20058;-76
2021/09/04 01:31:03;;;;;;;14.98;8.50;;;16.50;99.90;;;;;;5087407;28;20044;-77
2021/09/04 01:33:28;;;;;;;16.70;8.10;;;16.50;99.90;;;;;;5072046;28;20024;-76
2021/09/04 01:35:54;;;;;;;15.25;8.25;;;16.40;99.90;;;;;;5072146;28;20074;-76
2021/09/04 01:38:20;;;;;;;14.27;8.63;;;16.30;99.90;;;;;;5075711;28;20113;-77
2021/09/04 01:40:46;;;;;;;12.05;8.38;;;16.30;99.90;;;;;;5076021;28;20429;-76
2021/09/04 01:43:12;;;;;;;15.80;9.07;;;16.20;99.90;;;;;;5091454;28;20097;-76
2021/09/04 01:45:38;;;;;;;16.02;8.23;;;16.20;99.90;;;;;;5091441;28;20550;-76
2021/09/04 01:48:04;;;;;;;19.25;9.18;;;16.20;99.90;;;;;;5091483;28;20025;-77
2021/09/04 01:50:31;;;;;;;14.43;9.05;;;16.10;99.90;;;;;;5075868;28;20024;-77
2021/09/04 01:52:57;;;;;;;14.15;8.68;;;16.10;99.90;;;;;;5075963;28;20020;-76
2021/09/04 01:55:23;;;;;;;15.80;8.40;;;16.00;99.90;;;;;;5075886;28;20086;-77
2021/09/04 01:57:49;;;;;;;16.95;8.18;;;16.00;99.90;;;;;;5091301;28;20021;-77
2021/09/04 02:00:16;;;;;;;12.95;7.55;;;16.00;99.90;;;;;;5091245;28;20086;-76
2021/09/04 02:02:43;;;;;;;12.18;8.07;;;16.00;99.90;;;;;;5091306;28;20024;-77
2021/09/04 02:05:12;;;;;;;16.75;8.55;;;16.00;99.90;;;;;;5091218;28;20119;-76
2021/09/04 02:07:38;;;;;;;13.38;8.90;;;15.90;99.90;;;;;;5091125;28;20633;-77
2021/09/04 02:10:06;;;;;;;12.55;8.18;;;15.90;99.90;;;;;;5090874;28;20393;-76
2021/09/04 02:12:32;;;;;;;15.55;9.10;;;15.80;99.90;;;;;;5075633;28;20025;-77
2021/09/04 02:14:58;;;;;;;13.93;7.82;;;15.90;99.90;;;;;;5075113;28;20074;-77
2021/09/04 02:17:24;;;;;;;11.68;8.38;;;15.80;99.90;;;;;;5075345;28;20085;-77
2021/09/04 02:19:49;;;;;;;15.90;8.80;;;15.80;99.90;;;;;;5075230;28;20443;-77
2021/09/04 02:22:15;;;;;;;15.63;8.05;;;15.80;99.90;;;;;;5090756;28;20032;-76
2021/09/04 02:24:41;;;;;;;15.77;9.18;;;15.70;99.90;;;;;;5075161;28;20035;-76
2021/09/04 02:27:07;;;;;;;15.15;9.18;;;15.70;99.90;;;;;;5090520;28;20062;-76
2021/09/04 02:29:33;;;;;;;14.55;8.90;;;15.70;99.90;;;;;;5090557;28;20433;-76
2021/09/04 02:31:59;;;;;;;13.68;8.65;;;15.70;99.90;;;;;;5075238;28;20025;-77
2021/09/04 02:34:25;;;;;;;17.25;9.85;;;15.50;99.90;;;;;;5073966;28;20063;-76
2021/09/04 02:36:51;;;;;;;14.88;8.55;;;15.60;99.90;;;;;;5075233;28;20028;-76
2021/09/04 02:39:17;;;;;;;14.38;9.43;;;15.60;99.90;;;;;;5075046;28;20078;-76
2021/09/04 02:41:43;;;;;;;13.82;9.13;;;15.60;99.90;;;;;;5074779;28;20032;-76
2021/09/04 02:44:09;;;;;;;14.18;9.20;;;15.50;99.90;;;;;;5074596;28;20470;-76
2021/09/04 02:46:35;;;;;;;13.25;8.57;;;15.50;99.90;;;;;;5074814;28;20035;-76
2021/09/04 02:49:00;;;;;;;17.38;9.48;;;15.50;99.90;;;;;;5074714;28;20062;-77
2021/09/04 02:51:26;;;;;;;17.05;9.77;;;15.50;99.90;;;;;;5074793;28;20024;-77
2021/09/04 02:53:52;;;;;;;17.02;9.57;;;15.40;99.90;;;;;;5074624;28;20037;-76
2021/09/04 02:56:18;;;;;;;15.35;9.07;;;15.40;99.90;;;;;;5090343;28;20106;-76
2021/09/04 02:58:43;;;;;;;16.58;9.80;;;15.40;99.90;;;;;;5074374;28;20037;-76
2021/09/04 03:01:09;;;;;;;15.80;9.77;;;15.30;99.90;;;;;;5074440;28;20039;-76
2021/09/04 03:03:35;;;;;;;13.68;9.48;;;15.30;99.90;;;;;;5090036;28;20036;-77
2021/09/04 03:06:01;;;;;;;13.15;9.15;;;15.20;99.90;;;;;;5090352;28;20037;-76
2021/09/04 03:08:28;;;;;;;19.77;10.73;;;15.20;99.90;;;;;;5074219;28;20428;-76
2021/09/04 03:10:54;;;;;;;14.50;9.43;;;15.10;99.90;;;;;;5074241;28;20541;-76
2021/09/04 03:13:20;;;;;;;16.38;9.77;;;15.10;99.90;;;;;;5074117;28;20124;-76
2021/09/04 03:15:46;;;;;;;15.80;9.25;;;15.10;99.90;;;;;;5074050;28;20048;-76
2021/09/04 03:18:13;;;;;;;15.15;9.85;;;15.10;99.90;;;;;;5074189;28;20028;-77
2021/09/04 03:20:39;;;;;;;15.52;9.57;;;15.20;99.90;;;;;;5074227;28;20483;-77
2021/09/04 03:23:05;;;;;;;15.98;9.98;;;15.20;99.90;;;;;;5089705;28;20052;-77
2021/09/04 03:25:31;;;;;;;16.67;9.45;;;15.20;99.90;;;;;;5073856;28;20473;-77
2021/09/04 03:27:57;;;;;;;15.25;10.20;;;15.20;99.90;;;;;;5074099;28;20040;-77
2021/09/04 03:30:23;;;;;;;12.85;8.63;;;15.00;99.90;;;;;;5089599;28;20024;-77
2021/09/04 03:32:49;;;;;;;18.25;9.82;;;15.10;99.90;;;;;;5089419;28;20378;-77
2021/09/04 03:35:15;;;;;;;13.50;8.80;;;15.10;99.90;;;;;;5073669;28;20027;-75
2021/09/04 03:37:40;;;;;;;14.40;9.15;;;15.10;99.90;;;;;;5074041;28;20040;-75
2021/09/04 03:40:07;;;;;;;12.57;8.48;;;15.00;99.90;;;;;;5073755;28;20028;-76
2021/09/04 03:42:33;;;;;;;14.27;9.15;;;15.00;99.90;;;;;;5089283;28;20400;-76
2021/09/04 03:44:59;;;;;;;14.02;8.68;;;15.00;99.90;;;;;;5073842;28;20470;-75
2021/09/04 03:47:24;;;;;;;14.68;8.90;;;15.00;99.90;;;;;;5088956;28;20025;-76
2021/09/04 03:49:50;;;;;;;13.23;8.23;;;15.00;99.90;;;;;;5073463;28;20033;-76
2021/09/04 03:52:16;;;;;;;15.25;8.38;;;15.00;99.90;;;;;;5073435;28;20470;-76
2021/09/04 03:54:41;;;;;;;15.23;9.27;;;14.90;99.90;;;;;;5073219;28;20036;-76
2021/09/04 03:57:07;;;;;;;14.35;9.15;;;14.60;99.90;;;;;;5073533;28;20047;-76
2021/09/04 03:59:33;;;;;;;13.93;9.32;;;14.40;99.90;;;;;;5072654;28;20029;-76
2021/09/04 04:01:58;;;;;;;16.33;9.60;;;14.30;99.90;;;;;;5073544;28;20051;-76
2021/09/04 04:04:24;;;;;;;17.33;9.15;;;14.10;99.90;;;;;;5073329;28;20032;-76
2021/09/04 04:06:50;;;;;;;12.57;8.20;;;14.10;99.90;;;;;;5088855;28;20039;-75
2021/09/04 04:09:16;;;;;;;16.85;9.85;;;14.10;99.90;;;;;;5072920;28;20032;-76
2021/09/04 04:11:41;;;;;;;19.23;9.02;;;14.20;99.90;;;;;;5073083;28;20029;-76
2021/09/04 04:14:07;;;;;;;19.20;10.30;;;14.30;99.90;;;;;;5072936;28;20044;-76
2021/09/04 04:16:33;;;;;;;15.10;10.45;;;14.40;99.90;;;;;;5072897;28;20393;-76
2021/09/04 04:18:58;;;;;;;14.50;10.20;;;14.30;99.90;;;;;;5072830;28;20099;-76
2021/09/04 04:21:24;;;;;;;13.80;9.63;;;14.20;99.90;;;;;;5073056;28;20028;-76
2021/09/04 04:23:50;;;;;;;16.98;10.13;;;14.20;99.90;;;;;;5088663;28;20596;-76
2021/09/04 04:26:16;;;;;;;16.80;10.15;;;14.00;99.90;;;;;;5072833;28;20400;-75
2021/09/04 04:28:42;;;;;;;14.68;9.73;;;14.20;99.90;;;;;;5088451;28;20043;-75
2021/09/04 04:31:07;;;;;;;15.50;9.80;;;14.20;99.90;;;;;;5072952;28;20024;-75
2021/09/04 04:33:33;;;;;;;13.93;9.50;;;14.30;99.90;;;;;;5088315;28;20595;-75
2021/09/04 04:35:59;;;;;;;16.98;10.38;;;14.30;99.90;;;;;;5072534;28;20090;-75
2021/09/04 04:38:25;;;;;;;16.77;9.77;;;14.20;99.90;;;;;;5072678;28;20029;-76
2021/09/04 04:40:50;;;;;;;16.52;9.25;;;14.30;99.90;;;;;;5072880;28;20040;-77
2021/09/04 04:43:16;;;;;;;16.50;9.93;;;14.30;99.90;;;;;;5072349;28;20033;-77
2021/09/04 04:45:42;;;;;;;15.30;10.38;;;14.40;99.90;;;;;;5072574;28;20032;-78
2021/09/04 04:48:08;;;;;;;15.18;9.70;;;14.40;99.90;;;;;;5072509;28;20393;-77
2021/09/04 04:50:34;;;;;;;16.23;10.43;;;14.50;99.90;;;;;;5088182;28;20028;-77
2021/09/04 04:53:00;;;;;;;15.48;9.88;;;14.50;99.90;;;;;;5072503;28;20032;-77
2021/09/04 04:55:25;;;;;;;16.77;10.10;;;14.40;99.90;;;;;;5087855;28;20489;-77
2021/09/04 04:57:51;;;;;;;18.17;10.43;;;14.30;99.90;;;;;;5072674;28;20035;-77
2021/09/04 05:00:17;;;;;;;17.20;10.63;;;14.10;99.90;;;;;;5072192;28;20035;-75
2021/09/04 05:02:43;;;;;;;17.35;10.10;;;14.10;99.90;;;;;;5088170;28;20036;-77
2021/09/04 05:05:10;;;;;;;15.23;10.10;;;14.10;99.90;;;;;;5072292;28;20051;-77
2021/09/04 05:07:35;;;;;;;22.08;10.05;;;14.10;99.90;;;;;;5087763;28;20460;-77
2021/09/04 05:10:03;;;;;;;14.55;10.20;;;14.00;99.90;;;;;;5072145;28;20032;-77
2021/09/04 05:12:28;;;;;;;16.70;9.98;;;14.00;99.90;;;;;;5072424;28;20029;-77
2021/09/04 05:14:54;;;;;;;16.33;10.20;;;14.00;99.90;;;;;;5071921;28;20049;-77
2021/09/04 05:17:20;;;;;;;17.58;9.95;;;14.10;99.90;;;;;;5087768;28;20163;-77
2021/09/04 05:19:46;;;;;;;15.02;9.65;;;14.20;99.90;;;;;;5071994;28;20035;-77
2021/09/04 05:22:11;;;;;;;15.50;9.40;;;14.30;99.90;;;;;;5072046;28;20028;-77
2021/09/04 05:24:37;;;;;;;17.75;10.02;;;14.30;99.90;;;;;;5072324;28;20522;-77
2021/09/04 05:27:03;;;;;;;16.48;9.85;;;14.30;99.90;;;;;;5087774;28;20032;-78
2021/09/04 05:29:30;;;;;;;19.40;10.68;;;14.30;99.90;;;;;;5072129;28;20453;-77
2021/09/04 05:31:56;;;;;;;17.67;10.60;;;14.10;99.90;;;;;;5087766;28;20075;-77
2021/09/04 05:34:21;;;;;;;19.02;10.10;;;14.00;99.90;;;;;;5070853;28;20462;-77
2021/09/04 05:36:47;;;;;;;17.23;10.65;;;13.90;99.90;;;;;;5071919;28;20086;-77
2021/09/04 05:39:13;;;;;;;17.05;10.27;;;14.00;99.90;;;;;;5087288;28;20043;-77
2021/09/04 05:41:39;;;;;;;15.45;9.32;;;14.20;99.90;;;;;;5087533;28;20070;-76
2021/09/04 05:44:05;;;;;;;16.88;9.63;;;14.30;99.90;;;;;;5087797;28;20028;-77
2021/09/04 05:46:31;;;;;;;16.58;9.27;;;14.40;99.90;;;;;;5071564;28;20154;-77
2021/09/04 05:48:57;;;;;;;14.80;9.20;;;14.50;99.90;;;;;;5071892;28;20112;-77
2021/09/04 05:51:23;;;;;;;15.27;9.80;;;14.50;99.90;;;;;;5087000;28;20020;-77
2021/09/04 05:53:48;;;;;;;17.70;10.32;;;14.60;99.90;;;;;;5087732;28;20024;-76
2021/09/04 05:56:14;;;;;;;14.13;9.63;;;14.60;99.90;;;;;;5070419;28;20032;-76
2021/09/04 05:58:40;;;;;;;13.75;9.05;;;14.70;99.90;;;;;;5072031;28;20124;-76
2021/09/04 06:01:06;;;;;;;14.18;10.02;;;14.70;99.90;;;;;;5087733;28;20107;-76
2021/09/04 06:03:32;;;;;;;14.85;10.05;;;14.70;99.90;;;;;;5071797;28;20035;-76
2021/09/04 06:05:58;;;;;;;15.80;9.30;;;14.90;99.90;;;;;;5087189;28;20033;-77
2021/09/04 06:08:25;;;;;;;20.00;9.80;;;14.80;99.90;;;;;;5087174;28;20032;-76
2021/09/04 06:10:51;;;;;;;16.70;9.45;;;14.80;99.90;;;;;;5071520;28;20040;-76
2021/09/04 06:13:18;;;;;;;15.35;9.55;;;14.90;99.90;;;;;;5071438;28;20029;-77
2021/09/04 06:15:44;;;;;;;14.68;9.57;;;14.90;99.90;;;;;;5071326;28;20048;-76
2021/09/04 06:18:12;;;;;;;16.13;9.73;;;15.10;99.90;;;;;;5071625;28;20116;-76
2021/09/04 06:20:38;;;;;;;15.18;9.40;;;15.20;99.90;;;;;;5086985;28;20036;-75
2021/09/04 06:23:04;;;;;;;15.40;9.65;;;15.20;99.90;;;;;;5089236;28;20029;-76
2021/09/04 06:25:30;;;;;;;16.13;9.65;;;15.30;99.90;;;;;;5074955;28;20452;-76
2021/09/04 06:27:56;;;;;;;15.18;9.38;;;15.40;99.90;;;;;;5074891;28;20120;-76
2021/09/04 06:30:22;;;;;;;15.00;9.77;;;15.30;99.90;;;;;;5091122;28;20115;-76
2021/09/04 06:32:47;;;;;;;17.33;10.10;;;15.50;99.90;;;;;;5090611;28;20444;-76
2021/09/04 06:35:13;;;;;;;14.55;9.57;;;15.50;99.90;;;;;;5090620;28;20059;-76
2021/09/04 06:37:39;;;;;;;16.33;9.23;;;15.40;99.90;;;;;;5090591;28;20496;-76
2021/09/04 06:40:06;;;;;;;12.15;8.77;;;15.50;99.90;;;;;;5075101;28;20033;-75
2021/09/04 06:42:32;;;;;;;15.70;9.02;;;15.50;99.90;;;;;;5090417;28;20039;-75
2021/09/04 06:44:57;;;;;;;16.38;8.70;;;15.60;99.90;;;;;;5090629;28;20024;-75
2021/09/04 06:47:23;;;;;;;15.70;9.23;;;15.60;99.90;;;;;;5090450;28;20055;-76
2021/09/04 06:49:49;;;;;;;15.63;10.32;;;15.70;99.90;;;;;;5090505;28;20031;-77
2021/09/04 06:52:15;;;;;;;13.30;8.10;;;15.80;99.90;;;;;;5074896;28;20036;-77
2021/09/04 06:54:41;;;;;;;13.88;8.73;;;15.80;99.90;;;;;;5090406;28;20040;-77
2021/09/04 06:57:06;;;;;;;13.52;8.80;;;15.80;99.90;;;;;;5073593;28;20039;-77
2021/09/04 06:59:32;;;;;;;17.98;8.85;;;15.90;99.90;;;;;;5074636;28;20033;-76
2021/09/04 07:01:58;;;;;;;14.63;8.35;;;16.00;99.90;;;;;;5074427;28;20112;-77
2021/09/04 07:04:24;;;;;;;15.75;9.23;;;16.10;99.90;;;;;;5074217;28;20086;-76
2021/09/04 07:06:49;;;;;;;20.08;12.18;;;16.10;99.90;;;;;;5074138;28;20151;-76
2021/09/04 07:09:15;;;;;;;12.88;8.50;;;16.10;99.90;;;;;;5090009;28;20028;-76
2021/09/04 07:11:41;;;;;;;12.35;8.60;;;16.20;99.90;;;;;;5089960;28;20043;-77
2021/09/04 07:14:07;;;;;;;16.05;10.93;;;16.20;99.90;;;;;;5074269;28;20036;-76
2021/09/04 07:16:33;;;;;;;14.02;9.13;;;16.30;99.90;;;;;;5074386;28;20025;-77
2021/09/04 07:18:58;;;;;;;13.45;8.70;;;16.30;99.90;;;;;;5074194;28;20037;-77
2021/09/04 07:21:25;;;;;;;16.00;8.38;;;16.50;99.90;;;;;;5074334;28;20085;-77
2021/09/04 07:23:50;;;;;;;13.73;8.98;;;16.60;99.90;;;;;;5089758;28;20024;-76
2021/09/04 07:26:16;;;;;;;14.70;7.93;;;16.60;99.90;;;;;;5074141;28;20032;-77
2021/09/04 07:28:42;;;;;;;17.33;8.52;;;16.70;99.90;;;;;;5074054;28;20127;-76
2021/09/04 07:31:07;;;;;;;14.95;7.97;;;16.90;99.90;;;;;;5089319;28;20043;-77
2021/09/04 07:33:33;;;;;;;13.57;8.15;;;17.00;99.90;;;;;;5073637;28;20047;-76
2021/09/04 07:35:59;;;;;;;13.20;8.43;;;17.10;99.90;;;;;;5074056;28;20032;-77
2021/09/04 07:38:25;;;;;;;13.10;7.97;;;17.10;99.90;;;;;;5089156;28;20040;-77
2021/09/04 07:40:51;;;;;;;17.67;8.65;;;17.40;99.90;;;;;;5089554;28;20036;-76
2021/09/04 07:43:17;;;;;;;13.65;7.22;;;17.30;99.90;;;;;;5073376;28;20086;-77
2021/09/04 07:45:43;;;;;;;13.82;7.82;;;17.40;99.90;;;;;;5073311;28;20032;-76
2021/09/04 07:48:09;;;;;;;10.20;6.53;;;17.50;99.90;;;;;;5089409;28;20339;-77
2021/09/04 07:50:35;;;;;;;12.32;6.75;;;17.50;99.90;;;;;;5073606;28;20070;-78
2021/09/04 07:53:01;;;;;;;11.68;6.93;;;17.70;99.90;;;;;;5073410;28;20111;-78
2021/09/04 07:55:27;;;;;;;10.30;7.32;;;17.80;99.90;;;;;;5088852;28;20120;-76
2021/09/04 07:57:52;;;;;;;12.45;7.57;;;17.90;99.90;;;;;;5073241;28;20039;-77
2021/09/04 08:00:18;;;;;;;12.25;7.60;;;17.90;99.90;;;;;;5089095;28;20033;-76
2021/09/04 08:02:44;;;;;;;10.23;6.72;;;18.10;99.90;;;;;;5088641;28;20090;-77
2021/09/04 08:05:11;;;;;;;12.27;7.40;;;18.20;99.90;;;;;;5073331;28;20110;-77
2021/09/04 08:07:37;;;;;;;13.15;7.43;;;18.20;99.90;;;;;;5072949;28;20040;-76
2021/09/04 08:10:05;;;;;;;11.43;6.90;;;18.40;99.90;;;;;;5088628;28;20467;-77
2021/09/04 08:12:30;;;;;;;11.13;7.60;;;18.50;99.90;;;;;;5073246;28;20028;-77
2021/09/04 08:14:56;;;;;;;13.13;7.88;;;18.60;99.90;;;;;;5072786;28;20063;-77
2021/09/04 08:17:22;;;;;;;14.27;8.05;;;18.60;99.90;;;;;;5073003;28;20438;-77
2021/09/04 08:19:48;;;;;;;18.08;8.25;;;18.60;99.90;;;;;;5073045;28;20032;-77
2021/09/04 08:22:14;;;;;;;15.63;9.57;;;18.60;99.90;;;;;;5072962;28;20385;-77
2021/09/04 08:24:40;;;;;;;16.42;9.43;;;18.80;99.90;;;;;;5071699;28;20028;-77
2021/09/04 08:27:05;;;;;;;15.75;7.85;;;19.00;99.90;;;;;;5088671;28;20107;-77
2021/09/04 08:29:31;;;;;;;20.42;8.50;;;18.90;99.90;;;;;;5088509;28;20029;-77
2021/09/04 08:31:57;;;;;;;13.02;8.25;;;19.00;99.90;;;;;;5088248;28;20028;-77
2021/09/04 08:34:23;;;;;;;13.60;8.30;;;19.20;99.90;;;;;;5088325;28;20024;-76
2021/09/04 08:36:49;;;;;;;12.68;8.18;;;19.30;99.90;;;;;;5088121;28;20044;-78
2021/09/04 08:39:14;;;;;;;18.13;8.13;;;19.30;99.90;;;;;;5072908;28;20170;-77
2021/09/04 08:41:40;;;;;;;12.82;8.15;;;19.30;99.90;;;;;;5072528;28;20496;-76
2021/09/04 08:44:06;;;;;;;11.18;7.57;;;19.50;99.90;;;;;;5072535;28;20090;-77
2021/09/04 08:46:36;;;;;;;13.38;7.50;;;19.60;99.90;;;;;;5072169;28;20041;-77
2021/09/04 08:49:04;;;;;;;11.98;7.30;;;19.90;99.90;;;;;;5072309;28;20032;-77
2021/09/04 08:51:31;;;;;;;12.88;7.80;;;20.10;99.90;;;;;;5072533;28;20028;-76
2021/09/04 08:53:57;;;;;;;11.90;7.00;;;20.20;99.90;;;;;;5088198;28;20465;-76
2021/09/04 08:56:23;;;;;;;15.43;7.85;;;20.20;99.90;;;;;;5072306;28;20035;-76
2021/09/04 08:58:49;;;;;;;13.93;7.93;;;20.30;99.90;;;;;;5087791;28;20020;-76
2021/09/04 09:01:22;;;;;;;11.77;7.78;;;20.40;99.90;;;;;;5072256;28;20115;-77
2021/09/04 09:03:49;;;;;;;11.80;7.32;;;20.70;99.90;;;;;;5087399;28;20029;-76
2021/09/04 09:06:30;;;;;;;10.38;6.80;;;20.80;99.90;;;;;;5072120;28;20560;-77
2021/09/04 09:08:56;;;;;;;10.40;7.05;;;20.90;99.90;;;;;;5087479;28;20036;-76
2021/09/04 09:11:23;;;;;;;23.13;12.25;;;20.90;99.90;;;;;;5072490;28;20047;-76
2021/09/04 09:13:55;;;;;;;16.92;9.05;;;21.00;99.90;;;;;;5087531;28;20477;-76
2021/09/04 09:16:23;;;;;;;10.85;6.85;;;21.20;99.90;;;;;;5070678;28;20461;-76
2021/09/04 09:18:58;;;;;;;12.73;7.07;;;21.30;99.90;;;;;;5087460;28;20036;-76
2021/09/04 09:21:31;;;;;;;12.40;6.80;;;21.50;99.90;;;;;;5087678;28;20036;-76
2021/09/04 09:24:18;;;;;;;10.63;6.50;;;21.70;99.90;;;;;;5086659;28;20432;-77
2021/09/04 09:27:00;;;;;;;13.35;7.18;;;21.80;99.90;;;;;;5071722;28;20032;-78
2021/09/04 09:29:33;;;;;;;11.63;7.13;;;22.00;99.90;;;;;;5072087;28;20086;-78
2021/09/04 09:32:07;;;;;;;11.27;6.60;;;22.10;99.90;;;;;;5072060;28;20056;-77
2021/09/04 09:34:42;;;;;;;11.95;6.40;;;22.20;99.90;;;;;;5071856;28;20040;-77
2021/09/04 09:37:10;;;;;;;11.40;5.40;;;22.50;99.90;;;;;;5072274;28;20436;-77
2021/09/04 09:39:42;;;;;;;9.35;5.45;;;22.50;99.90;;;;;;5087285;28;20131;-78
2021/09/04 09:42:11;;;;;;;11.07;5.75;;;22.50;99.90;;;;;;5087206;28;20028;-78
2021/09/04 09:44:40;;;;;;;16.67;11.18;;;22.60;99.90;;;;;;5071828;28;20028;-78
2021/09/04 09:47:11;;;;;;;10.80;5.97;;;22.80;99.90;;;;;;5071800;28;20099;-78
2021/09/04 09:49:41;;;;;;;9.52;5.32;;;22.90;99.90;;;;;;5086923;28;20036;-78
2021/09/04 09:52:17;;;;;;;10.32;6.22;;;23.20;99.90;;;;;;5087254;28;20457;-78
2021/09/04 09:54:48;;;;;;;10.55;6.10;;;23.60;99.30;;;;;;5087257;28;20043;-77
2021/09/04 09:57:14;;;;;;;;;;;23.80;99.00;;;;;;5073229;28;20036;-77
2021/09/04 09:59:43;;;;;;;12.30;6.60;;;24.00;99.00;;;;;;5091404;28;19913;-77
2021/09/04 10:02:12;;;;;;;8.77;5.72;;;23.60;99.00;;;;;;5091506;28;20036;-78
2021/09/04 10:04:40;;;;;;;10.52;6.10;;;23.80;99.00;;;;;;5091050;28;20033;-78
2021/09/04 10:07:08;;;;;;;8.75;5.68;;;23.60;99.50;;;;;;5075479;28;20424;-78
2021/09/04 10:09:38;;;;;;;7.55;4.88;;;23.80;98.70;;;;;;5075304;28;20543;-78
2021/09/04 10:12:04;;;;;;;9.15;5.07;;;24.00;97.70;;;;;;5090756;28;20056;-78
2021/09/04 10:14:30;;;;;;;7.10;4.90;;;24.20;97.80;;;;;;5075187;28;20085;-78
2021/09/04 10:17:00;;;;;;;10.20;5.72;;;24.20;98.10;;;;;;5075277;28;20042;-78
2021/09/04 10:19:34;;;;;;;8.77;5.63;;;24.30;97.40;;;;;;5090768;28;20025;-77
2021/09/04 10:22:04;;;;;;;8.98;5.60;;;24.30;97.20;;;;;;5090793;28;20052;-78
2021/09/04 10:24:42;;;;;;;13.13;6.63;;;24.30;98.10;;;;;;5090874;28;20466;-78
2021/09/04 10:27:09;;;;;;;8.75;5.05;;;24.30;97.60;;;;;;5075092;28;20305;-78
2021/09/04 10:29:43;;;;;;;7.70;4.40;;;24.40;97.10;;;;;;5074896;28;20155;-78
2021/09/04 10:32:18;;;;;;;6.80;4.40;;;24.60;97.10;;;;;;5074919;28;20117;-78
2021/09/04 10:34:46;;;;;;;7.28;4.32;;;24.80;97.20;;;;;;5073844;28;20106;-78
2021/09/04 10:37:12;;;;;;;9.93;5.32;;;24.90;97.00;;;;;;5090594;28;20035;-78
2021/09/04 10:39:56;;;;;;;9.85;5.20;;;24.90;96.20;;;;;;5074828;28;20028;-78
2021/09/04 10:42:30;;;;;;;9.70;5.68;;;25.10;95.90;;;;;;5074890;28;20040;-78
2021/09/04 10:45:06;;;;;;;9.35;4.50;;;25.30;96.20;;;;;;5090377;28;20032;-78
2021/09/04 10:47:55;;;;;;;7.60;4.65;;;25.10;95.30;;;;;;5074738;28;20401;-79
2021/09/04 10:50:32;;;;;;;9.35;4.70;;;25.40;94.60;;;;;;5090287;28;20036;-79
2021/09/04 10:53:05;;;;;;;7.18;4.30;;;25.60;94.90;;;;;;5074788;28;20474;-78
2021/09/04 10:55:37;;;;;;;6.68;4.00;;;25.80;95.10;;;;;;5089406;28;20449;-78
2021/09/04 10:58:07;;;;;;;9.35;4.00;;;25.70;94.70;;;;;;5089654;28;20032;-78
2021/09/04 11:00:50;;;;;;;14.38;4.22;;;25.90;94.00;;;;;;5074698;28;20385;-79
2021/09/04 11:03:17;;;;;;;5.80;3.78;;;25.90;94.20;;;;;;5090222;28;20115;-78
2021/09/04 11:05:51;;;;;;;5.75;4.10;;;26.50;93.30;;;;;;5089422;28;20032;-78
2021/09/04 11:08:19;;;;;;;5.75;3.35;;;26.40;92.80;;;;;;5073798;28;20382;-78
2021/09/04 11:11:05;;;;;;;7.00;3.80;;;26.30;93.30;;;;;;5074432;28;20465;-79
2021/09/04 11:13:39;;;;;;;14.30;8.45;;;26.10;93.10;;;;;;5089977;28;20124;-78
2021/09/04 11:16:35;;;;;;;24.95;15.48;;;26.40;93.40;;;;;;5074029;28;20128;-78
2021/09/04 11:19:13;;;;;;;7.25;3.70;;;26.70;92.50;;;;;;5088357;28;20040;-78
2021/09/04 11:21:59;;;;;;;7.10;4.20;;;26.80;92.30;;;;;;5073866;28;20068;-78
2021/09/04 11:24:36;;;;;;;6.30;3.85;;;26.30;92.00;;;;;;5074135;28;20059;-77
2021/09/04 11:27:15;;;;;;;7.80;3.45;;;26.90;91.80;;;;;;5074137;28;20067;-78
2021/09/04 11:29:51;;;;;;;5.47;3.25;;;26.90;91.80;;;;;;5089249;28;20028;-78
2021/09/04 11:32:26;;;;;;;8.57;4.22;;;27.20;91.80;;;;;;5073770;28;20485;-79
2021/09/04 11:34:54;;;;;;;6.50;3.50;;;27.10;91.80;;;;;;5089136;28;20040;-78
2021/09/04 11:37:29;;;;;;;8.48;3.40;;;27.30;91.40;;;;;;5073899;28;20493;-78
2021/09/04 11:40:05;;;;;;;7.97;3.63;;;27.60;90.60;;;;;;5088976;28;20056;-78
2021/09/04 11:42:36;;;;;;;7.78;3.30;;;27.70;90.50;;;;;;5073659;28;20029;-78
2021/09/04 11:45:05;;;;;;;5.90;3.50;;;27.40;90.30;;;;;;5073504;28;20036;-78
2021/09/04 11:47:33;;;;;;;5.40;3.80;;;27.40;91.50;;;;;;5088893;28;20032;-78
2021/09/04 11:50:01;;;;;;;9.85;6.20;;;27.70;91.00;;;;;;5089206;28;20044;-77
2021/09/04 11:52:39;;;;;;;9.40;4.68;;;28.00;90.60;;;;;;5073730;28;20029;-78
2021/09/04 11:55:17;;;;;;;6.18;3.65;;;27.60;89.90;;;;;;5089053;28;20070;-78
2021/09/04 11:57:46;;;;;;;6.45;3.55;;;27.30;90.30;;;;;;5073342;28;20122;-78
2021/09/04 12:00:21;;;;;;;5.55;3.72;;;26.90;91.10;;;;;;5073224;28;20123;-78
2021/09/04 12:02:59;;;;;;;7.30;3.47;;;27.60;91.00;;;;;;5073213;28;20557;-78
2021/09/04 12:05:32;;;;;;;6.90;3.70;;;27.80;90.00;;;;;;5073501;28;20043;-78
2021/09/04 12:08:07;;;;;;;7.88;4.22;;;27.90;89.30;;;;;;5088607;28;20025;-78
2021/09/04 12:10:39;;;;;;;9.35;4.88;;;27.20;89.70;;;;;;5088881;28;20032;-78
2021/09/04 12:13:17;;;;;;;6.43;3.53;;;27.20;89.00;;;;;;5073579;28;20103;-78
2021/09/04 12:15:43;;;;;;;5.78;3.50;;;27.60;88.70;;;;;;5087825;28;20515;-78
2021/09/04 12:18:09;;;;;;;7.78;4.10;;;28.10;90.10;;;;;;5088888;28;20495;-78
2021/09/04 12:20:44;;;;;;;6.53;3.50;;;28.00;88.40;;;;;;5071721;28;20107;-78
2021/09/04 12:23:24;;;;;;;8.30;4.32;;;28.50;88.10;;;;;;5073012;28;20101;-79
2021/09/04 12:26:02;;;;;;;5.57;3.47;;;29.00;86.40;;;;;;5088729;28;20033;-78
2021/09/04 12:28:28;;;;;;;5.80;3.63;;;28.80;86.50;;;;;;5088898;28;20116;-78
2021/09/04 12:31:15;;;;;;;5.88;3.45;;;29.30;85.80;;;;;;5088741;28;20537;-78
2021/09/04 12:33:49;;;;;;;6.55;3.50;;;29.60;85.60;;;;;;5073550;28;20426;-78
2021/09/04 12:36:34;;;;;;;11.55;8.15;;;29.20;84.50;;;;;;5077467;28;20028;-78
2021/09/04 12:39:22;;;;;;;6.50;3.80;;;30.20;85.60;;;;;;5096249;28;20029;-78
2021/09/04 12:41:59;;;;;;;5.13;3.58;;;29.10;85.00;;;;;;5095820;28;20044;-78